sensor_id;sensor_type;location;lat;lon;timestamp;temperature;humidity
9885;DHT22;4981;50.966;4.842;2023-07-31T00:02:04;15.50;1.00
9885;DHT22;4981;50.966;4.842;2023-07-31T00:04:31;15.50;1.00
9885;DHT22;4981;50.966;4.842;2023-07-31T00:06:58;15.60;1.00
9885;DHT22;4981;50.966;4.842;2023-07-31T00:09:26;15.60;1.00
9885;DHT22;4981;50.966;4.842;2023-07-31T00:11:53;15.60;1.00
9885;DHT22;4981;50.966;4.842;2023-07-31T00:14:20;15.50;1.00
9885;DHT22;4981;50.966;4.842;2023-07-31T00:16:47;15.50;1.00
9885;DHT22;4981;50.966;4.842;2023-07-31T00:19:14;17.30;1.00
9885;DHT22;4981;50.966;4.842;2023-07-31T00:21:41;15.50;1.00
9885;DHT22;4981;50.966;4.842;2023-07-31T00:24:08;15.50;1.00
9885;DHT22;4981;50.966;4.842;2023-07-31T00:26:36;15.70;1.00
9885;DHT22;4981;50.966;4.842;2023-07-31T00:29:03;15.70;1.00
9885;DHT22;4981;50.966;4.842;2023-07-31T00:31:30;15.40;1.00
9885;DHT22;4981;50.966;4.842;2023-07-31T00:33:57;15.70;1.00
9885;DHT22;4981;50.966;4.842;2023-07-31T00:36:24;15.80;1.00
9885;DHT22;4981;50.966;4.842;2023-07-31T00:38:51;16.00;1.00
9885;DHT22;4981;50.966;4.842;2023-07-31T00:41:18;15.80;1.00
9885;DHT22;4981;50.966;4.842;2023-07-31T00:43:46;14.70;1.00
9885;DHT22;4981;50.966;4.842;2023-07-31T00:46:13;15.90;1.00
9885;DHT22;4981;50.966;4.842;2023-07-31T00:48:40;15.60;1.00
9885;DHT22;4981;50.966;4.842;2023-07-31T00:51:08;15.80;1.00
9885;DHT22;4981;50.966;4.842;2023-07-31T00:53:35;16.00;1.00
9885;DHT22;4981;50.966;4.842;2023-07-31T00:56:03;15.70;1.00
9885;DHT22;4981;50.966;4.842;2023-07-31T00:58:30;16.20;1.00
9885;DHT22;4981;50.966;4.842;2023-07-31T01:00:59;15.70;1.00
9885;DHT22;4981;50.966;4.842;2023-07-31T01:03:26;16.10;1.00
9885;DHT22;4981;50.966;4.842;2023-07-31T01:06:00;15.90;1.00
9885;DHT22;4981;50.966;4.842;2023-07-31T01:08:35;15.30;1.00
9885;DHT22;4981;50.966;4.842;2023-07-31T01:11:09;15.90;1.00
9885;DHT22;4981;50.966;4.842;2023-07-31T01:13:37;16.00;1.00
9885;DHT22;4981;50.966;4.842;2023-07-31T01:16:06;16.00;1.00
9885;DHT22;4981;50.966;4.842;2023-07-31T01:18:33;16.30;1.00
9885;DHT22;4981;50.966;4.842;2023-07-31T01:21:06;16.00;1.00
9885;DHT22;4981;50.966;4.842;2023-07-31T01:23:50;16.00;1.00
9885;DHT22;4981;50.966;4.842;2023-07-31T01:26:21;15.90;1.00
9885;DHT22;4981;50.966;4.842;2023-07-31T01:28:55;16.00;1.00
9885;DHT22;4981;50.966;4.842;2023-07-31T01:31:24;16.00;1.00
9885;DHT22;4981;50.966;4.842;2023-07-31T01:33:53;16.00;1.00
9885;DHT22;4981;50.966;4.842;2023-07-31T01:36:21;16.00;1.00
9885;DHT22;4981;50.966;4.842;2023-07-31T01:38:48;16.00;1.00
9885;DHT22;4981;50.966;4.842;2023-07-31T01:41:17;16.10;1.00
9885;DHT22;4981;50.966;4.842;2023-07-31T01:43:45;16.10;1.00
9885;DHT22;4981;50.966;4.842;2023-07-31T01:46:12;16.10;1.00
9885;DHT22;4981;50.966;4.842;2023-07-31T01:48:39;16.20;1.00
9885;DHT22;4981;50.966;4.842;2023-07-31T01:51:06;16.10;1.00
9885;DHT22;4981;50.966;4.842;2023-07-31T01:53:33;16.10;1.00
9885;DHT22;4981;50.966;4.842;2023-07-31T01:56:00;16.10;1.00
9885;DHT22;4981;50.966;4.842;2023-07-31T01:58:27;16.10;1.00
9885;DHT22;4981;50.966;4.842;2023-07-31T02:00:55;16.20;1.00
9885;DHT22;4981;50.966;4.842;2023-07-31T02:03:23;16.10;1.00
9885;DHT22;4981;50.966;4.842;2023-07-31T02:05:50;16.10;1.00
9885;DHT22;4981;50.966;4.842;2023-07-31T02:08:17;16.10;1.00
9885;DHT22;4981;50.966;4.842;2023-07-31T02:10:44;16.00;1.00
9885;DHT22;4981;50.966;4.842;2023-07-31T02:13:11;16.10;1.00
9885;DHT22;4981;50.966;4.842;2023-07-31T02:15:38;16.10;1.00
9885;DHT22;4981;50.966;4.842;2023-07-31T02:18:06;15.50;1.00
9885;DHT22;4981;50.966;4.842;2023-07-31T02:20:34;16.00;1.00
9885;DHT22;4981;50.966;4.842;2023-07-31T02:23:02;16.10;1.00
9885;DHT22;4981;50.966;4.842;2023-07-31T02:25:29;16.00;1.00
9885;DHT22;4981;50.966;4.842;2023-07-31T02:27:56;16.10;1.00
9885;DHT22;4981;50.966;4.842;2023-07-31T02:30:23;16.20;1.00
9885;DHT22;4981;50.966;4.842;2023-07-31T02:32:50;16.10;1.00
9885;DHT22;4981;50.966;4.842;2023-07-31T02:35:18;16.10;1.00
9885;DHT22;4981;50.966;4.842;2023-07-31T02:37:45;16.30;1.00
9885;DHT22;4981;50.966;4.842;2023-07-31T02:40:12;16.30;1.00
9885;DHT22;4981;50.966;4.842;2023-07-31T02:42:39;16.20;1.00
9885;DHT22;4981;50.966;4.842;2023-07-31T02:45:07;16.20;1.00
9885;DHT22;4981;50.966;4.842;2023-07-31T02:47:34;16.20;1.00
9885;DHT22;4981;50.966;4.842;2023-07-31T02:50:02;16.20;1.00
9885;DHT22;4981;50.966;4.842;2023-07-31T02:52:30;15.80;1.00
9885;DHT22;4981;50.966;4.842;2023-07-31T02:54:57;16.20;1.00
9885;DHT22;4981;50.966;4.842;2023-07-31T02:57:25;16.20;1.00
9885;DHT22;4981;50.966;4.842;2023-07-31T02:59:52;16.20;1.00
9885;DHT22;4981;50.966;4.842;2023-07-31T03:02:19;16.20;1.00
9885;DHT22;4981;50.966;4.842;2023-07-31T03:04:45;16.30;1.00
9885;DHT22;4981;50.966;4.842;2023-07-31T03:07:12;16.30;1.00
9885;DHT22;4981;50.966;4.842;2023-07-31T03:09:43;16.30;1.00
9885;DHT22;4981;50.966;4.842;2023-07-31T03:12:10;18.30;1.00
9885;DHT22;4981;50.966;4.842;2023-07-31T03:14:37;16.30;1.00
9885;DHT22;4981;50.966;4.842;2023-07-31T03:17:04;16.30;1.00
9885;DHT22;4981;50.966;4.842;2023-07-31T03:19:31;16.40;1.00
9885;DHT22;4981;50.966;4.842;2023-07-31T03:21:58;16.40;1.00
9885;DHT22;4981;50.966;4.842;2023-07-31T03:24:25;16.40;1.00
9885;DHT22;4981;50.966;4.842;2023-07-31T03:26:54;16.50;1.00
9885;DHT22;4981;50.966;4.842;2023-07-31T03:29:21;16.60;1.00
9885;DHT22;4981;50.966;4.842;2023-07-31T03:31:48;16.70;1.00
9885;DHT22;4981;50.966;4.842;2023-07-31T03:34:15;16.60;1.00
9885;DHT22;4981;50.966;4.842;2023-07-31T03:36:42;16.60;1.00
9885;DHT22;4981;50.966;4.842;2023-07-31T03:39:09;16.50;1.00
9885;DHT22;4981;50.966;4.842;2023-07-31T03:41:36;16.60;1.00
9885;DHT22;4981;50.966;4.842;2023-07-31T03:44:05;16.50;1.00
9885;DHT22;4981;50.966;4.842;2023-07-31T03:46:32;16.60;1.00
9885;DHT22;4981;50.966;4.842;2023-07-31T03:48:59;16.60;1.00
9885;DHT22;4981;50.966;4.842;2023-07-31T03:51:26;16.60;1.00
9885;DHT22;4981;50.966;4.842;2023-07-31T03:53:53;16.60;1.00
9885;DHT22;4981;50.966;4.842;2023-07-31T03:56:20;16.60;1.00
9885;DHT22;4981;50.966;4.842;2023-07-31T03:58:48;16.60;1.00
9885;DHT22;4981;50.966;4.842;2023-07-31T04:01:16;16.60;1.00
9885;DHT22;4981;50.966;4.842;2023-07-31T04:03:45;16.60;1.00
9885;DHT22;4981;50.966;4.842;2023-07-31T04:06:11;16.80;1.00
9885;DHT22;4981;50.966;4.842;2023-07-31T04:08:38;16.70;1.00
9885;DHT22;4981;50.966;4.842;2023-07-31T04:11:05;16.60;1.00
9885;DHT22;4981;50.966;4.842;2023-07-31T04:13:32;16.60;1.00
9885;DHT22;4981;50.966;4.842;2023-07-31T04:15:59;16.60;1.00
9885;DHT22;4981;50.966;4.842;2023-07-31T04:18:27;16.40;1.00
9885;DHT22;4981;50.966;4.842;2023-07-31T04:20:56;16.20;1.00
9885;DHT22;4981;50.966;4.842;2023-07-31T04:23:24;16.10;1.00
9885;DHT22;4981;50.966;4.842;2023-07-31T04:25:51;16.10;1.00
9885;DHT22;4981;50.966;4.842;2023-07-31T04:28:17;16.00;1.00
9885;DHT22;4981;50.966;4.842;2023-07-31T04:30:44;16.00;1.00
9885;DHT22;4981;50.966;4.842;2023-07-31T04:33:11;16.00;1.00
9885;DHT22;4981;50.966;4.842;2023-07-31T04:35:40;15.90;1.00
9885;DHT22;4981;50.966;4.842;2023-07-31T04:38:07;15.90;1.00
9885;DHT22;4981;50.966;4.842;2023-07-31T04:40:34;15.90;1.00
9885;DHT22;4981;50.966;4.842;2023-07-31T04:43:00;15.90;1.00
9885;DHT22;4981;50.966;4.842;2023-07-31T04:45:27;16.00;1.00
9885;DHT22;4981;50.966;4.842;2023-07-31T04:47:54;16.00;1.00
9885;DHT22;4981;50.966;4.842;2023-07-31T04:50:21;15.90;1.00
9885;DHT22;4981;50.966;4.842;2023-07-31T04:52:50;15.90;1.00
9885;DHT22;4981;50.966;4.842;2023-07-31T04:55:17;15.90;1.00
9885;DHT22;4981;50.966;4.842;2023-07-31T04:57:43;15.90;1.00
9885;DHT22;4981;50.966;4.842;2023-07-31T05:00:11;15.90;1.00
9885;DHT22;4981;50.966;4.842;2023-07-31T05:02:38;15.90;1.00
9885;DHT22;4981;50.966;4.842;2023-07-31T05:05:05;15.90;1.00
9885;DHT22;4981;50.966;4.842;2023-07-31T05:07:32;15.90;1.00
9885;DHT22;4981;50.966;4.842;2023-07-31T05:10:01;16.00;1.00
9885;DHT22;4981;50.966;4.842;2023-07-31T05:12:28;15.90;1.00
9885;DHT22;4981;50.966;4.842;2023-07-31T05:14:55;15.90;1.00
9885;DHT22;4981;50.966;4.842;2023-07-31T05:17:21;16.00;1.00
9885;DHT22;4981;50.966;4.842;2023-07-31T05:19:48;16.00;1.00
9885;DHT22;4981;50.966;4.842;2023-07-31T05:22:15;16.00;1.00
9885;DHT22;4981;50.966;4.842;2023-07-31T05:24:42;15.90;1.00
9885;DHT22;4981;50.966;4.842;2023-07-31T05:27:11;16.00;1.00
9885;DHT22;4981;50.966;4.842;2023-07-31T05:29:40;16.00;1.00
9885;DHT22;4981;50.966;4.842;2023-07-31T05:32:08;16.10;1.00
9885;DHT22;4981;50.966;4.842;2023-07-31T05:34:34;16.00;1.00
9885;DHT22;4981;50.966;4.842;2023-07-31T05:37:01;16.00;1.00
9885;DHT22;4981;50.966;4.842;2023-07-31T05:39:28;16.20;1.00
9885;DHT22;4981;50.966;4.842;2023-07-31T05:41:55;16.00;1.00
9885;DHT22;4981;50.966;4.842;2023-07-31T05:44:24;16.00;1.00
9885;DHT22;4981;50.966;4.842;2023-07-31T05:46:51;16.00;1.00
9885;DHT22;4981;50.966;4.842;2023-07-31T05:49:18;16.10;1.00
9885;DHT22;4981;50.966;4.842;2023-07-31T05:51:45;16.20;1.00
9885;DHT22;4981;50.966;4.842;2023-07-31T05:54:12;16.00;1.00
9885;DHT22;4981;50.966;4.842;2023-07-31T05:56:39;16.00;1.00
9885;DHT22;4981;50.966;4.842;2023-07-31T05:59:05;16.00;1.00
9885;DHT22;4981;50.966;4.842;2023-07-31T06:01:34;16.00;1.00
9885;DHT22;4981;50.966;4.842;2023-07-31T06:04:03;15.90;1.00
9885;DHT22;4981;50.966;4.842;2023-07-31T06:06:31;16.00;1.00
9885;DHT22;4981;50.966;4.842;2023-07-31T06:08:58;15.90;1.00
9885;DHT22;4981;50.966;4.842;2023-07-31T06:11:25;16.00;1.00
9885;DHT22;4981;50.966;4.842;2023-07-31T06:13:52;15.90;1.00
9885;DHT22;4981;50.966;4.842;2023-07-31T06:16:19;15.90;1.00
9885;DHT22;4981;50.966;4.842;2023-07-31T06:18:48;15.80;1.00
9885;DHT22;4981;50.966;4.842;2023-07-31T06:21:15;15.80;1.00
9885;DHT22;4981;50.966;4.842;2023-07-31T06:23:42;15.80;1.00
9885;DHT22;4981;50.966;4.842;2023-07-31T06:26:09;15.80;1.00
9885;DHT22;4981;50.966;4.842;2023-07-31T06:28:39;15.80;1.00
9885;DHT22;4981;50.966;4.842;2023-07-31T06:31:08;15.80;1.00
9885;DHT22;4981;50.966;4.842;2023-07-31T06:33:36;15.90;1.00
9885;DHT22;4981;50.966;4.842;2023-07-31T06:36:04;16.00;1.00
9885;DHT22;4981;50.966;4.842;2023-07-31T06:38:32;16.00;1.00
9885;DHT22;4981;50.966;4.842;2023-07-31T06:40:59;16.00;1.00
9885;DHT22;4981;50.966;4.842;2023-07-31T06:43:26;16.00;1.00
9885;DHT22;4981;50.966;4.842;2023-07-31T06:45:53;16.10;1.00
9885;DHT22;4981;50.966;4.842;2023-07-31T06:48:19;16.30;1.00
9885;DHT22;4981;50.966;4.842;2023-07-31T06:50:46;16.10;1.00
9885;DHT22;4981;50.966;4.842;2023-07-31T06:53:15;16.10;1.00
9885;DHT22;4981;50.966;4.842;2023-07-31T06:55:42;16.10;1.00
9885;DHT22;4981;50.966;4.842;2023-07-31T06:58:09;16.10;1.00
9885;DHT22;4981;50.966;4.842;2023-07-31T07:00:36;16.10;1.00
9885;DHT22;4981;50.966;4.842;2023-07-31T07:03:03;16.20;1.00
9885;DHT22;4981;50.966;4.842;2023-07-31T07:05:30;16.20;1.00
9885;DHT22;4981;50.966;4.842;2023-07-31T07:07:56;16.30;1.00
9885;DHT22;4981;50.966;4.842;2023-07-31T07:10:25;16.30;1.00
9885;DHT22;4981;50.966;4.842;2023-07-31T07:12:52;16.40;1.00
9885;DHT22;4981;50.966;4.842;2023-07-31T07:15:20;16.40;1.00
9885;DHT22;4981;50.966;4.842;2023-07-31T07:17:47;16.40;1.00
9885;DHT22;4981;50.966;4.842;2023-07-31T07:20:14;16.50;1.00
9885;DHT22;4981;50.966;4.842;2023-07-31T07:22:40;16.60;1.00
9885;DHT22;4981;50.966;4.842;2023-07-31T07:25:09;16.80;1.00
9885;DHT22;4981;50.966;4.842;2023-07-31T07:27:37;16.40;1.00
9885;DHT22;4981;50.966;4.842;2023-07-31T07:30:05;16.60;1.00
9885;DHT22;4981;50.966;4.842;2023-07-31T07:32:32;16.60;1.00
9885;DHT22;4981;50.966;4.842;2023-07-31T11:28:17;20.00;1.00
9885;DHT22;4981;50.966;4.842;2023-07-31T11:30:45;19.90;1.00
9885;DHT22;4981;50.966;4.842;2023-07-31T11:33:13;19.90;1.00
9885;DHT22;4981;50.966;4.842;2023-07-31T11:35:42;19.60;1.00
9885;DHT22;4981;50.966;4.842;2023-07-31T11:38:11;19.60;1.00
9885;DHT22;4981;50.966;4.842;2023-07-31T11:40:41;19.50;1.00
9885;DHT22;4981;50.966;4.842;2023-07-31T11:43:08;19.80;1.00
9885;DHT22;4981;50.966;4.842;2023-07-31T11:45:38;19.80;1.00
9885;DHT22;4981;50.966;4.842;2023-07-31T11:48:07;19.70;1.00
9885;DHT22;4981;50.966;4.842;2023-07-31T11:50:36;20.40;1.00
9885;DHT22;4981;50.966;4.842;2023-07-31T11:53:06;20.20;1.00
9885;DHT22;4981;50.966;4.842;2023-07-31T11:55:35;20.20;1.00
9885;DHT22;4981;50.966;4.842;2023-07-31T11:58:02;20.10;1.00
9885;DHT22;4981;50.966;4.842;2023-07-31T12:00:29;20.30;1.00
9885;DHT22;4981;50.966;4.842;2023-07-31T12:02:58;20.10;1.00
9885;DHT22;4981;50.966;4.842;2023-07-31T12:05:26;20.10;1.00
9885;DHT22;4981;50.966;4.842;2023-07-31T12:07:54;19.90;1.00
9885;DHT22;4981;50.966;4.842;2023-07-31T12:10:29;20.00;1.00
9885;DHT22;4981;50.966;4.842;2023-07-31T12:13:01;20.00;1.00
9885;DHT22;4981;50.966;4.842;2023-07-31T12:15:39;19.80;1.00
9885;DHT22;4981;50.966;4.842;2023-07-31T12:18:10;20.10;1.00
9885;DHT22;4981;50.966;4.842;2023-07-31T12:20:41;20.00;1.00
9885;DHT22;4981;50.966;4.842;2023-07-31T12:23:14;20.00;1.00
9885;DHT22;4981;50.966;4.842;2023-07-31T12:25:41;20.40;1.00
